Time;durP1;ratioP1;P1;durP2;ratioP2;P2;SDS_P1;SDS_P2;PMS_P1;PMS_P2;Temp;Humidity;BMP_temperature;BMP_pressure;BME280_temperature;BME280_humidity;BME280_pressure;Samples;Min_cycle;Max_cycle;Signal;HPM_P1;HPM_P2
2021/08/15 00:01:44;;;;;;;;;25.00;23.50;;;;;23.03;56.29;101328.75;4937047;29;8890;-81
2021/08/15 00:04:39;;;;;;;;;26.25;26.25;;;;;22.61;53.83;101327.41;4925151;29;8880;-82
2021/08/15 00:07:36;;;;;;;;;23.00;21.50;;;;;22.60;54.61;101319.34;4939294;29;8836;-80
2021/08/15 00:10:32;;;;;;;;;21.75;21.75;;;;;22.77;54.96;101318.59;4925541;29;8891;-85
2021/08/15 00:13:27;;;;;;;;;23.75;23.00;;;;;22.78;54.20;101317.41;4937844;29;8883;-81
2021/08/15 00:16:23;;;;;;;;;23.50;23.50;;;;;22.88;54.47;101318.66;4937603;29;8860;-82
2021/08/15 00:19:18;;;;;;;;;22.25;21.50;;;;;22.93;56.79;101321.09;4938160;29;8974;-82
2021/08/15 00:22:14;;;;;;;;;21.50;20.75;;;;;22.70;55.54;101327.06;4938106;29;8950;-80
2021/08/15 00:25:13;;;;;;;;;24.00;21.75;;;;;22.98;56.43;101329.16;4937264;29;8978;-81
2021/08/15 00:28:09;;;;;;;;;20.00;18.75;;;;;22.58;53.85;101322.59;4933303;29;8906;-83
2021/08/15 00:31:04;;;;;;;;;18.25;18.25;;;;;22.65;53.90;101316.97;4941172;29;8851;-80
2021/08/15 00:34:01;;;;;;;;;18.00;17.00;;;;;22.91;54.41;101324.28;4927063;29;8867;-81
2021/08/15 00:36:57;;;;;;;;;20.00;20.00;;;;;22.83;56.55;101316.19;4939922;29;8848;-81
2021/08/15 00:39:53;;;;;;;;;21.25;21.25;;;;;22.66;54.67;101321.41;4962351;28;8846;-81
2021/08/15 00:42:48;;;;;;;;;15.75;15.75;;;;;22.57;54.42;101311.72;4983814;28;8886;-82
2021/08/15 00:45:47;;;;;;;;;19.75;18.50;;;;;22.76;58.11;101314.16;4970324;28;8850;-80
2021/08/15 00:48:42;;;;;;;;;21.50;20.00;;;;;22.70;56.07;101316.59;4978908;28;8846;-82
2021/08/15 00:51:38;;;;;;;;;25.75;22.75;;;;;22.65;56.05;101316.16;4961986;28;9687;-82
2021/08/15 00:54:34;;;;;;;;;24.25;23.25;;;;;22.59;56.80;101314.94;4962755;28;8843;-80
2021/08/15 00:57:31;;;;;;;;;26.50;24.50;;;;;22.60;54.44;101316.53;4975311;28;8843;-82
2021/08/15 01:00:26;;;;;;;;;24.00;24.00;;;;;22.51;55.55;101311.28;4963494;28;8854;-80
2021/08/15 01:03:22;;;;;;;;;27.00;25.00;;;;;22.31;55.23;101310.00;4975257;28;8972;-82
2021/08/15 01:06:17;;;;;;;;;34.00;29.25;;;;;22.23;55.74;101302.72;4962941;28;8855;-82
2021/08/15 01:09:13;;;;;;;;;25.50;22.00;;;;;22.35;57.51;101311.63;4974813;28;8917;-81
2021/08/15 01:12:09;;;;;;;;;22.25;19.75;;;;;22.32;56.16;101315.25;4961745;28;8858;-82
2021/08/15 01:15:05;;;;;;;;;23.25;21.50;;;;;22.44;57.04;101312.06;4974365;28;8850;-80
2021/08/15 01:18:01;;;;;;;;;18.00;17.50;;;;;22.34;56.28;101309.22;4974401;28;8900;-80
2021/08/15 01:21:10;;;;;;;;;18.00;15.50;;;;;22.32;57.83;101309.63;4975344;28;8846;-81
2021/08/15 01:24:07;;;;;;;;;20.25;18.75;;;;;22.46;59.06;101300.38;4974895;28;8830;-81
2021/08/15 01:27:04;;;;;;;;;14.25;13.75;;;;;22.43;57.14;101306.81;4974525;28;8952;-82
2021/08/15 01:30:00;;;;;;;;;17.25;14.25;;;;;22.61;57.85;101306.88;4963796;28;8850;-81
2021/08/15 01:32:55;;;;;;;;;14.75;14.75;;;;;22.57;56.28;101304.06;4974506;28;8854;-82
2021/08/15 01:35:53;;;;;;;;;11.50;11.50;;;;;22.22;55.75;101310.34;4962930;28;8830;-80
2021/08/15 01:38:51;;;;;;;;;14.25;14.25;;;;;22.02;56.76;101315.47;4959866;28;8870;-83
2021/08/15 01:41:46;;;;;;;;;13.25;13.25;;;;;21.91;56.11;101323.03;4955307;28;8869;-83
2021/08/15 01:44:42;;;;;;;;;17.00;17.00;;;;;22.16;58.82;101321.22;4954316;28;8849;-82
2021/08/15 01:47:38;;;;;;;;;18.25;18.00;;;;;22.26;58.30;101313.22;4942241;28;8872;-81
2021/08/15 01:50:35;;;;;;;;;13.00;13.00;;;;;22.28;57.15;101316.44;4942105;28;8931;-81
2021/08/15 01:53:31;;;;;;;;;13.25;13.25;;;;;22.00;55.99;101309.41;4943118;28;8859;-81
2021/08/15 01:56:28;;;;;;;;;12.25;12.25;;;;;22.11;56.66;101315.16;4954425;28;8967;-81
2021/08/15 01:59:27;;;;;;;;;14.00;14.00;;;;;21.85;57.49;101316.16;4955619;28;8873;-83
2021/08/15 02:02:22;;;;;;;;;13.50;13.50;;;;;21.91;58.27;101315.41;4942170;28;9058;-82
2021/08/15 02:05:19;;;;;;;;;15.50;15.50;;;;;21.83;58.16;101313.75;4941341;29;8853;-83
2021/08/15 02:08:14;;;;;;;;;14.50;14.50;;;;;21.70;57.36;101308.81;4941588;28;8876;-82
2021/08/15 02:11:10;;;;;;;;;12.25;12.25;;;;;21.96;59.25;101299.34;4954258;29;8947;-81
2021/08/15 02:14:06;;;;;;;;;13.25;13.25;;;;;21.94;57.43;101302.56;4942743;29;8857;-82
2021/08/15 02:17:02;;;;;;;;;12.00;12.00;;;;;21.93;57.91;101306.59;4942421;29;8948;-82
2021/08/15 02:19:58;;;;;;;;;14.75;14.75;;;;;21.89;58.91;101309.38;4955337;28;8984;-84
2021/08/15 02:22:54;;;;;;;;;15.25;15.25;;;;;21.85;57.94;101305.75;4956718;29;8972;-81
2021/08/15 02:25:50;;;;;;;;;12.50;12.25;;;;;21.68;57.17;101299.97;4958129;28;8935;-82
2021/08/15 02:28:46;;;;;;;;;15.25;15.25;;;;;21.85;57.96;101311.38;4959373;28;8877;-82
2021/08/15 02:31:41;;;;;;;;;13.50;13.00;;;;;21.84;59.20;101295.66;4959271;28;8911;-83
2021/08/15 02:34:37;;;;;;;;;15.50;15.50;;;;;21.83;60.15;101296.84;4958287;28;8883;-86
2021/08/15 02:37:33;;;;;;;;;14.50;12.75;;;;;21.91;60.27;101294.88;4958973;28;8869;-82
2021/08/15 02:40:29;;;;;;;;;18.50;16.25;;;;;21.94;58.04;101294.13;4973917;28;9596;-82
2021/08/15 02:43:25;;;;;;;;;17.25;16.00;;;;;22.08;58.85;101299.03;4977312;28;8964;-82
2021/08/15 02:46:20;;;;;;;;;19.25;18.00;;;;;22.12;57.12;101308.31;4977269;28;8912;-83
2021/08/15 02:49:16;;;;;;;;;17.50;16.25;;;;;22.15;58.16;101304.69;4964733;28;8878;-82
2021/08/15 02:52:11;;;;;;;;;20.00;19.00;;;;;21.98;56.64;101308.19;4964417;28;8846;-84
2021/08/15 02:55:09;;;;;;;;;16.25;14.75;;;;;22.11;58.49;101301.06;4977694;28;8858;-84
2021/08/15 02:58:05;;;;;;;;;20.75;17.75;;;;;22.21;58.44;101297.47;4965083;28;8830;-83
2021/08/15 03:01:00;;;;;;;;;19.50;16.75;;;;;22.22;57.37;101301.09;4965079;28;8892;-83
2021/08/15 03:03:56;;;;;;;;;16.50;16.50;;;;;22.14;57.29;101301.06;4965622;28;8838;-84
2021/08/15 03:06:51;;;;;;;;;12.00;12.00;;;;;22.27;57.58;101303.53;4965166;28;9652;-82
2021/08/15 03:09:47;;;;;;;;;20.75;17.75;;;;;22.03;56.77;101305.03;4977084;28;8878;-85
2021/08/15 03:12:42;;;;;;;;;17.25;14.75;;;;;22.33;59.92;101313.25;4966044;28;8843;-85
2021/08/15 03:15:40;;;;;;;;;13.00;13.00;;;;;22.39;57.00;101304.00;4964209;28;9545;-86
2021/08/15 03:18:35;;;;;;;;;13.20;13.20;;;;;22.38;56.97;101304.38;4965141;28;8866;-86
2021/08/15 03:21:34;;;;;;;;;15.40;13.80;;;;;22.20;59.02;101309.97;4964409;28;8905;-87
2021/08/15 03:24:31;;;;;;;;;15.25;15.25;;;;;22.29;57.95;101306.78;4978406;28;8897;-84
2021/08/15 03:27:26;;;;;;;;;16.75;16.25;;;;;22.10;59.47;101307.91;4977135;28;8865;-84
2021/08/15 03:30:23;;;;;;;;;14.00;14.00;;;;;22.30;58.17;101303.53;4977618;28;8894;-84
2021/08/15 03:33:18;;;;;;;;;16.00;16.00;;;;;22.36;58.71;101307.59;4965150;28;9593;-85
2021/08/15 03:36:14;;;;;;;;;11.25;11.25;;;;;22.37;57.41;101303.59;4963209;28;8846;-85
2021/08/15 03:39:09;;;;;;;;;11.40;11.40;;;;;21.89;56.72;101311.38;4972269;28;8829;-85
2021/08/15 03:42:05;;;;;;;;;12.00;12.00;;;;;22.04;57.82;101306.63;4957244;28;8861;-85
2021/08/15 03:45:01;;;;;;;;;12.80;12.80;;;;;22.19;57.87;101311.97;4945778;28;8885;-85
2021/08/15 03:47:59;;;;;;;;;17.80;14.20;;;;;22.32;59.08;101306.81;4944372;28;8845;-84
2021/08/15 03:50:56;;;;;;;;;10.60;10.60;;;;;22.35;58.07;101317.25;4957055;28;8869;-82
2021/08/15 03:53:51;;;;;;;;;12.40;12.40;;;;;22.33;57.71;101321.69;4944740;28;8892;-82
2021/08/15 03:56:48;;;;;;;;;13.00;13.00;;;;;22.42;58.11;101322.94;4956525;28;8849;-82
2021/08/15 03:59:45;;;;;;;;;11.60;11.60;;;;;22.25;58.24;101309.59;4956590;28;8853;-84
2021/08/15 04:02:40;;;;;;;;;14.40;14.40;;;;;22.20;57.48;101304.31;4958129;28;9629;-82
2021/08/15 04:05:37;;;;;;;;;12.40;12.40;;;;;22.50;60.20;101306.03;4944589;28;8929;-82
2021/08/15 04:08:33;;;;;;;;;14.50;13.75;;;;;22.53;59.05;101311.69;4956795;28;8896;-82
2021/08/15 04:11:28;;;;;;;;;13.00;13.00;;;;;22.61;58.41;101307.69;4945250;28;8911;-81
2021/08/15 04:14:24;;;;;;;;;14.75;14.50;;;;;22.64;59.18;101318.19;4958190;28;8853;-81
2021/08/15 04:17:19;;;;;;;;;13.60;13.60;;;;;22.79;59.08;101310.56;4944279;28;8927;-81
2021/08/15 04:20:15;;;;;;;;;13.80;13.80;;;;;22.58;57.46;101307.69;4932212;28;8857;-83
2021/08/15 04:23:10;;;;;;;;;15.50;15.50;;;;;22.44;58.88;101308.44;4945742;28;8856;-81
2021/08/15 04:26:06;;;;;;;;;14.40;14.40;;;;;22.55;60.34;101308.50;4960893;28;8843;-82
2021/08/15 04:29:04;;;;;;;;;13.40;13.40;;;;;22.47;58.47;101310.47;4975053;28;9615;-80
2021/08/15 04:32:00;;;;;;;;;12.20;12.20;;;;;22.65;60.25;101310.53;4925077;29;8922;-79
2021/08/15 04:34:55;;;;;;;;;15.80;15.60;;;;;22.32;59.33;101318.06;4941265;28;8868;-80
2021/08/15 04:37:51;;;;;;;;;18.00;18.00;;;;;22.57;60.40;101318.16;4953815;28;8874;-80
2021/08/15 04:40:48;;;;;;;;;14.40;12.20;;;;;22.64;60.04;101318.19;4942760;28;8870;-79
2021/08/15 04:43:44;;;;;;;;;14.20;14.20;;;;;22.41;59.85;101321.31;4940636;28;8844;-80
2021/08/15 04:46:40;;;;;;;;;13.60;13.60;;;;;22.44;59.49;101323.34;4955898;28;8852;-81
2021/08/15 04:49:35;;;;;;;;;12.75;12.75;;;;;22.72;60.15;101311.34;4950914;28;8871;-79
2021/08/15 04:52:31;;;;;;;;;12.60;12.60;;;;;22.95;58.67;101318.69;4953680;28;8858;-80
2021/08/15 04:55:26;;;;;;;;;12.40;12.40;;;;;22.91;58.78;101321.47;4952807;28;8855;-79
2021/08/15 04:58:22;;;;;;;;;12.60;12.60;;;;;22.91;60.32;101331.94;4942201;28;8875;-82
2021/08/15 05:01:18;;;;;;;;;13.40;13.40;;;;;23.19;59.88;101328.38;4952672;28;8862;-80
2021/08/15 05:04:14;;;;;;;;;11.80;11.80;;;;;22.77;58.90;101321.41;4940035;28;8843;-79
2021/08/15 05:07:09;;;;;;;;;11.80;11.80;;;;;22.65;58.66;101325.44;4950467;28;9613;-82
2021/08/15 05:10:05;;;;;;;;;11.50;11.50;;;;;22.69;59.61;101319.78;4952704;28;8858;-80
2021/08/15 05:13:01;;;;;;;;;10.20;10.20;;;;;22.85;60.18;101325.06;4940941;28;8854;-80
2021/08/15 05:15:57;;;;;;;;;11.40;11.40;;;;;23.08;59.13;101321.91;4940335;28;8910;-84
2021/08/15 05:18:52;;;;;;;;;13.00;13.00;;;;;22.98;60.68;101315.03;4953437;28;8856;-83
2021/08/15 05:21:48;;;;;;;;;13.25;12.75;;;;;22.80;59.09;101315.00;4938702;28;8871;-84
2021/08/15 05:24:44;;;;;;;;;11.00;11.00;;;;;22.99;60.08;101322.28;4953094;28;8881;-83
2021/08/15 05:27:39;;;;;;;;;14.20;14.20;;;;;23.18;59.73;101318.28;4947500;28;8867;-82
2021/08/15 05:30:37;;;;;;;;;13.40;13.40;;;;;23.20;59.91;101311.03;4945382;28;8885;-82
2021/08/15 05:33:33;;;;;;;;;14.00;14.00;;;;;23.18;60.23;101310.63;4953489;28;8874;-85
2021/08/15 05:36:29;;;;;;;;;12.40;12.40;;;;;22.76;60.33;101308.53;4941434;28;9654;-84
2021/08/15 05:39:25;;;;;;;;;11.20;11.20;;;;;23.26;60.81;101308.63;4922319;29;8883;-86
2021/08/15 05:42:21;;;;;;;;;12.20;12.20;;;;;23.47;60.54;101302.16;4927429;29;8943;-83
2021/08/15 05:45:17;;;;;;;;;11.60;11.60;;;;;23.40;58.62;101314.28;4916156;29;8849;-80
2021/08/15 05:48:28;;;;;;;;;10.40;10.40;;;;;23.70;59.30;101308.22;4916085;29;8849;-81
2021/08/15 05:51:09;;;;;;;;;9.60;9.60;;;;;23.71;58.84;101309.81;4915797;29;8876;-82
2021/08/15 05:54:05;;;;;;;;;10.00;9.20;;;;;23.76;57.57;101314.25;4915854;29;8880;-81
2021/08/15 05:56:36;;;;;;;;;12.40;11.80;;;;;23.57;58.11;101309.81;4936042;29;8882;-82
2021/08/15 05:59:33;;;;;;;;;9.40;9.40;;;;;23.67;58.98;101320.31;4923358;29;8878;-84
2021/08/15 06:02:02;;;;;;;;;7.80;7.80;;;;;23.68;57.05;101321.91;4937278;29;8937;-82
2021/08/15 06:04:32;;;;;;;;;9.60;9.60;;;;;23.34;58.66;101321.53;4935693;29;8890;-84
2021/08/15 06:07:30;;;;;;;;;8.80;8.80;;;;;23.34;58.28;101323.53;4936464;29;8858;-84
2021/08/15 06:10:27;;;;;;;;;11.00;11.00;;;;;23.18;58.91;101326.75;4923451;29;8874;-84
2021/08/15 06:12:54;;;;;;;;;8.60;8.60;;;;;23.28;59.29;101321.09;4938863;29;8854;-87
2021/08/15 06:15:50;;;;;;;;;9.20;9.20;;;;;23.12;59.19;101325.53;4935667;29;8878;-87
2021/08/15 06:18:19;;;;;;;;;10.80;10.80;;;;;23.17;59.58;101328.78;4938248;29;8873;-85
2021/08/15 06:20:48;;;;;;;;;9.80;9.80;;;;;23.09;58.82;101326.34;4937295;29;8850;-83
2021/08/15 06:23:15;;;;;;;;;20.20;20.20;;;;;23.10;60.23;101330.78;4936184;29;8859;-86
2021/08/15 06:25:45;;;;;;;;;76.75;63.75;;;;;23.63;60.13;101321.53;4937426;29;8851;-85
2021/08/15 06:28:13;;;;;;;;;68.33;57.00;;;;;23.78;59.29;101317.47;4936291;29;9325;-84
2021/08/15 06:30:41;;;;;;;;;17.75;16.25;;;;;23.90;57.88;101327.53;4935872;29;9201;-86
2021/08/15 06:33:09;;;;;;;;;42.50;36.25;;;;;23.98;57.57;101324.28;4936321;29;8859;-84
2021/08/15 06:35:37;;;;;;;;;15.60;14.80;;;;;23.71;57.78;101317.50;4936746;29;8867;-85
2021/08/15 06:38:07;;;;;;;;;12.00;12.00;;;;;23.87;57.23;101328.34;4934990;29;8843;-85
2021/08/15 06:40:35;;;;;;;;;9.40;9.40;;;;;24.01;57.50;101317.03;4919712;29;8954;-85
2021/08/15 06:43:31;;;;;;;;;62.67;50.33;;;;;23.85;58.97;101325.94;4935839;29;8894;-83
2021/08/15 06:46:26;;;;;;;;;14.50;14.50;;;;;24.03;57.30;101318.22;4934857;29;9108;-83
2021/08/15 06:49:22;;;;;;;;;24.80;24.80;;;;;24.06;57.58;101319.41;4935836;29;9667;-84
2021/08/15 06:52:18;;;;;;;;;13.00;13.00;;;;;23.98;57.62;101321.44;4936297;29;8850;-82
2021/08/15 06:55:14;;;;;;;;;13.20;13.20;;;;;23.89;57.48;101318.25;4934862;29;8929;-83
2021/08/15 06:58:10;;;;;;;;;23.25;22.75;;;;;24.14;58.16;101310.50;4934934;29;8871;-81
2021/08/15 07:01:06;;;;;;;;;12.80;12.80;;;;;24.46;57.60;101306.78;4943357;29;9718;-82
2021/08/15 07:04:01;;;;;;;;;10.80;10.80;;;;;24.21;57.01;101317.34;4916747;29;8838;-85
2021/08/15 07:06:35;;;;;;;;;39.00;34.50;;;;;24.58;57.54;101308.31;4901467;29;8863;-86
2021/08/15 07:09:03;;;;;;;;;19.00;16.20;;;;;24.65;56.52;101308.28;4917437;29;8985;-85
2021/08/15 07:11:58;;;;;;;;;10.60;10.60;;;;;24.36;56.44;101308.44;4918444;29;8928;-84
2021/08/15 07:14:54;;;;;;;;;12.40;12.40;;;;;24.36;56.75;101304.78;4934284;29;8845;-83
2021/08/15 07:17:50;;;;;;;;;11.60;10.80;;;;;24.25;57.48;101307.66;4924848;29;9626;-85
2021/08/15 07:20:48;;;;;;;;;8.40;8.40;;;;;24.29;56.92;101301.97;4939022;29;9571;-84
2021/08/15 07:23:44;;;;;;;;;7.80;7.80;;;;;24.52;56.79;101298.66;4937139;29;8845;-81
2021/08/15 07:26:11;;;;;;;;;11.60;11.60;;;;;24.59;56.60;101299.41;4940681;29;8868;-82
2021/08/15 07:28:39;;;;;;;;;8.20;8.20;;;;;25.01;56.03;101305.22;4922585;29;8876;-82
2021/08/15 07:31:06;;;;;;;;;8.20;8.20;;;;;25.15;55.48;101286.16;4922185;29;8849;-83
2021/08/15 07:34:02;;;;;;;;;6.80;6.80;;;;;25.33;54.47;101280.31;4938044;29;8901;-79
2021/08/15 07:36:45;;;;;;;;;7.80;7.80;;;;;25.83;53.68;101288.34;4938269;29;8895;-82
2021/08/15 07:39:41;;;;;;;;;8.00;8.00;;;;;26.17;52.11;101287.56;4939237;29;8882;-80
2021/08/15 07:42:38;;;;;;;;;8.80;8.20;;;;;26.14;51.81;101296.88;4919641;29;8851;-81
2021/08/15 07:45:08;;;;;;;;;6.00;6.00;;;;;26.22;51.24;101292.72;4894091;29;8869;-81
2021/08/15 07:48:04;;;;;;;;;9.40;9.40;;;;;26.38;50.97;101307.13;4910629;29;8932;-81
2021/08/15 07:51:00;;;;;;;;;6.60;6.60;;;;;26.42;50.48;101293.72;4918348;29;8862;-82
2021/08/15 07:53:57;;;;;;;;;5.60;5.60;;;;;26.34;49.50;101293.00;4929279;29;8862;-83
2021/08/15 07:56:54;;;;;;;;;4.80;4.80;;;;;26.50;50.06;101294.44;4915163;29;8871;-83
2021/08/15 07:59:50;;;;;;;;;4.20;4.20;;;;;26.64;49.25;101288.56;4907002;29;8853;-78
2021/08/15 08:02:48;;;;;;;;;6.00;6.00;;;;;26.63;49.28;101291.84;4919872;29;8851;-82
2021/08/15 08:05:26;;;;;;;;;7.60;7.60;;;;;26.57;49.86;101292.31;4902296;29;8849;-81
2021/08/15 08:07:54;;;;;;;;;4.60;4.60;;;;;26.45;49.52;101292.06;4920194;29;8877;-86
2021/08/15 08:10:53;;;;;;;;;6.60;6.60;;;;;26.73;49.33;101277.47;4913435;29;8853;-81
2021/08/15 08:13:50;;;;;;;;;8.20;8.20;;;;;27.18;47.78;101290.59;4899784;29;8940;-81
2021/08/15 08:16:18;;;;;;;;;7.00;7.00;;;;;26.80;46.81;101285.88;4884556;29;8876;-80
2021/08/15 08:18:49;;;;;;;;;7.20;7.20;;;;;27.18;47.78;101285.72;4901444;29;9584;-80
2021/08/15 08:21:17;;;;;;;;;6.40;6.40;;;;;27.36;46.66;101283.38;4901108;29;8877;-79
2021/08/15 08:23:46;;;;;;;;;6.40;6.40;;;;;27.28;46.23;101281.88;4900158;29;8896;-80
2021/08/15 08:26:14;;;;;;;;;6.20;6.20;;;;;27.25;46.17;101291.28;4900245;29;8861;-81
2021/08/15 08:28:42;;;;;;;;;7.40;7.40;;;;;27.29;45.24;101286.34;4900710;29;8857;-86
2021/08/15 08:31:37;;;;;;;;;6.20;6.20;;;;;27.39;44.93;101293.09;4899305;29;8873;-83
2021/08/15 08:34:33;;;;;;;;;4.00;4.00;;;;;27.59;44.24;101293.91;4903922;29;9667;-83
2021/08/15 08:37:29;;;;;;;;;5.00;5.00;;;;;27.74;44.65;101290.84;4901676;29;8842;-83
2021/08/15 08:40:25;;;;;;;;;4.80;4.80;;;;;27.85;43.90;101295.09;4913061;29;9589;-81
2021/08/15 08:43:21;;;;;;;;;3.20;3.20;;;;;28.25;41.58;101284.53;4932736;29;9705;-82
2021/08/15 08:45:52;;;;;;;;;1.80;1.80;;;;;27.97;40.13;101305.81;4936346;29;8877;-83
2021/08/15 08:48:21;;;;;;;;;0.80;0.80;;;;;27.91;40.33;101296.19;4932571;29;8851;-88
2021/08/15 08:50:52;;;;;;;;;3.20;3.20;;;;;28.13;40.55;101295.75;4920846;29;8967;-83
2021/08/15 08:53:52;;;;;;;;;1.40;1.40;;;;;28.00;39.12;101289.13;4934082;29;8936;-86
2021/08/15 08:56:48;;;;;;;;;2.40;2.40;;;;;28.31;39.23;101289.72;4933228;29;8866;-83
2021/08/15 08:59:44;;;;;;;;;1.80;1.80;;;;;28.61;38.46;101289.47;4919092;29;8849;-83
2021/08/15 09:02:40;;;;;;;;;1.00;1.00;;;;;28.23;38.68;101284.16;4935078;29;9691;-81
2021/08/15 09:05:09;;;;;;;;;2.60;2.60;;;;;28.70;38.67;101289.66;4936378;29;8881;-81
2021/08/15 09:08:05;;;;;;;;;2.20;2.20;;;;;28.79;39.00;101287.00;4935637;29;8842;-78
2021/08/15 09:11:15;;;;;;;;;2.00;2.00;;;;;28.97;37.97;101286.59;4919272;29;8860;-80
2021/08/15 09:14:17;;;;;;;;;3.20;3.20;;;;;29.47;39.22;101290.22;4918205;29;8866;-82
2021/08/15 09:17:12;;;;;;;;;1.60;1.60;;;;;28.98;36.95;101285.34;4910783;29;9114;-83
2021/08/15 09:20:11;;;;;;;;;2.00;2.00;;;;;28.86;38.32;101286.03;4901524;29;8821;-79
2021/08/15 09:22:39;;;;;;;;;4.60;4.20;;;;;28.81;37.92;101283.69;4915873;29;9658;-84
2021/08/15 09:25:35;;;;;;;;;3.00;3.00;;;;;28.89;38.11;101290.81;4915407;29;8887;-82
2021/08/15 09:28:35;;;;;;;;;3.00;3.00;;;;;28.38;38.90;101287.53;4916749;29;8955;-80
2021/08/15 09:31:32;;;;;;;;;4.60;4.60;;;;;28.59;38.04;101283.38;4918179;29;8876;-81
2021/08/15 09:34:04;;;;;;;;;3.80;3.80;;;;;28.18;39.40;101293.19;4917387;29;8896;-85
2021/08/15 09:37:06;;;;;;;;;2.20;2.20;;;;;27.79;39.53;101299.66;4904419;29;8945;-79
2021/08/15 09:40:21;;;;;;;;;5.00;5.00;;;;;27.65;41.59;101292.19;4917111;29;8833;-83
2021/08/15 09:43:23;;;;;;;;;5.00;5.00;;;;;27.80;40.79;101295.59;4936416;29;8851;-79
2021/08/15 09:46:18;;;;;;;;;5.60;5.60;;;;;27.68;41.77;101282.84;4923078;29;8845;-79
2021/08/15 09:49:14;;;;;;;;;6.20;6.20;;;;;27.63;40.70;101288.19;4934195;29;11355;-80
2021/08/15 09:51:44;;;;;;;;;6.40;6.40;;;;;27.55;40.51;101281.84;4935605;29;8871;-77
2021/08/15 09:54:17;;;;;;;;;4.00;4.00;;;;;27.66;43.82;101292.97;4919490;29;8849;-81
2021/08/15 09:56:44;;;;;;;;;3.00;3.00;;;;;27.89;41.90;101284.44;4936587;29;8845;-80
2021/08/15 09:59:34;;;;;;;;;3.80;3.80;;;;;27.70;41.39;101283.19;4936168;29;8857;-82
2021/08/15 10:02:04;;;;;;;;;2.00;2.00;;;;;27.54;39.77;101276.59;4936761;29;8861;-77
2021/08/15 10:05:02;;;;;;;;;4.00;4.00;;;;;27.56;40.89;101285.47;4935670;29;8891;-79
2021/08/15 10:07:31;;;;;;;;;2.00;2.00;;;;;27.44;40.03;101278.38;4919956;29;8860;-81
2021/08/15 10:10:00;;;;;;;;;3.40;3.40;;;;;27.62;40.38;101276.00;4936270;29;8868;-82
2021/08/15 10:12:59;;;;;;;;;4.00;4.00;;;;;27.46;40.91;101270.25;4931083;29;8861;-81
2021/08/15 10:15:31;;;;;;;;;3.80;3.80;;;;;27.58;40.79;101266.75;4918455;29;9508;-77
2021/08/15 10:18:29;;;;;;;;;4.00;4.00;;;;;27.30;39.88;101270.13;4935925;29;8860;-77
2021/08/15 10:21:25;;;;;;;;;4.60;4.60;;;;;27.54;41.10;101270.91;4934682;29;8833;-78
2021/08/15 10:24:21;;;;;;;;;3.20;3.20;;;;;27.42;39.70;101264.59;4929864;29;8980;-78
2021/08/15 10:26:54;;;;;;;;;5.00;5.00;;;;;27.71;39.81;101264.09;4904284;29;8876;-78
2021/08/15 10:29:43;;;;;;;;;3.00;3.00;;;;;27.61;39.75;101265.09;4918680;29;8853;-78
2021/08/15 10:33:02;;;;;;;;;4.00;4.00;;;;;27.82;41.26;101253.31;4904976;29;8942;-77
2021/08/15 10:36:20;;;;;;;;;2.40;2.40;;;;;27.80;39.81;101252.97;4934822;29;8927;-78
2021/08/15 10:39:36;;;;;;;;;2.60;2.60;;;;;27.90;39.27;101251.94;4934166;29;8895;-77
2021/08/15 10:42:05;;;;;;;;;1.20;1.20;;;;;27.61;39.94;101254.53;4903660;29;8862;-76
2021/08/15 10:45:09;;;;;;;;;3.00;3.00;;;;;27.67;40.60;101255.63;4934736;29;8843;-76
2021/08/15 10:48:08;;;;;;;;;3.20;3.20;;;;;27.61;40.87;101260.22;4933162;29;8945;-78
2021/08/15 10:51:03;;;;;;;;;2.80;2.80;;;;;27.65;40.81;101240.25;4923584;29;8892;-76
2021/08/15 10:53:59;;;;;;;;;3.20;3.20;;;;;27.51;40.99;101249.84;4953278;28;8842;-75
2021/08/15 10:57:00;;;;;;;;;3.80;3.00;;;;;27.53;41.10;101252.22;4955532;28;8843;-78
2021/08/15 10:59:56;;;;;;;;;3.60;3.60;;;;;27.48;41.38;101253.56;4930717;29;8839;-76
2021/08/15 11:02:52;;;;;;;;;5.00;5.00;;;;;27.27;41.62;101251.09;4919580;29;8882;-76
2021/08/15 11:05:47;;;;;;;;;5.40;5.40;;;;;27.47;41.33;101245.47;4933983;28;8854;-73
2021/08/15 11:08:33;;;;;;;;;5.00;5.00;;;;;27.43;42.12;101252.00;4927237;28;8845;-75
2021/08/15 11:11:33;;;;;;;;;6.00;6.00;;;;;27.33;41.59;101246.53;4958900;28;8884;-75
2021/08/15 11:14:29;;;;;;;;;9.60;9.60;;;;;27.38;42.30;101249.69;4919918;29;9070;-75
2021/08/15 11:17:25;;;;;;;;;4.00;4.00;;;;;27.23;42.15;101241.84;4918352;29;8833;-75
2021/08/15 11:20:49;;;;;;;;;4.80;4.80;;;;;27.08;42.06;101244.94;4920302;29;8829;-73
2021/08/15 11:23:20;;;;;;;;;4.20;4.20;;;;;27.13;41.79;101240.78;4890088;29;8871;-77
2021/08/15 11:26:17;;;;;;;;;4.40;4.40;;;;;27.30;42.12;101245.38;4926604;28;8866;-74
2021/08/15 11:29:04;;;;;;;;;6.00;6.00;;;;;27.00;41.63;101249.09;4934746;28;8864;-74
2021/08/15 11:31:36;;;;;;;;;6.20;6.20;;;;;27.19;42.52;101238.25;4945175;28;8835;-76
2021/08/15 11:34:08;;;;;;;;;5.00;5.00;;;;;26.80;41.07;101236.84;4935895;29;8877;-77
2021/08/15 11:36:36;;;;;;;;;5.00;5.00;;;;;26.87;41.33;101233.91;4938489;29;8856;-76
2021/08/15 11:39:05;;;;;;;;;5.20;5.20;;;;;26.99;42.87;101235.31;4949714;28;8864;-75
2021/08/15 11:41:36;;;;;;;;;5.80;5.80;;;;;26.85;41.56;101234.34;4921768;29;8850;-75
2021/08/15 11:44:04;;;;;;;;;3.80;3.80;;;;;26.68;41.45;101238.22;4924164;29;8918;-74
2021/08/15 11:46:32;;;;;;;;;4.40;4.40;;;;;26.98;45.10;101236.56;4918690;29;8958;-75
2021/08/15 11:49:01;;;;;;;;;2.80;2.80;;;;;26.86;43.88;101235.13;4918899;29;9567;-75
2021/08/15 11:52:17;;;;;;;;;6.80;6.20;;;;;26.91;43.46;101237.47;4910849;29;8848;-76
2021/08/15 11:55:10;;;;;;;;;5.00;5.00;;;;;26.69;43.26;101236.22;4913405;29;8903;-76
2021/08/15 11:57:58;;;;;;;;;4.20;4.20;;;;;26.63;42.84;101241.56;4917883;29;8856;-75
2021/08/15 12:00:36;;;;;;;;;6.20;6.20;;;;;26.76;45.06;101236.09;4919225;29;8861;-76
2021/08/15 12:03:31;;;;;;;;;4.60;4.60;;;;;26.80;44.83;101231.97;4909797;29;8881;-75
2021/08/15 12:06:08;;;;;;;;;3.00;3.00;;;;;26.78;44.66;101230.81;4916655;29;8903;-76
2021/08/15 12:08:37;;;;;;;;;7.60;7.60;;;;;26.79;43.26;101230.38;4914787;29;8935;-76
2021/08/15 12:11:33;;;;;;;;;5.20;5.20;;;;;26.89;43.92;101229.38;4912494;29;9613;-76
2021/08/15 12:14:34;;;;;;;;;5.40;5.40;;;;;26.80;44.02;101231.19;4904501;29;8852;-76
2021/08/15 12:17:49;;;;;;;;;4.20;4.20;;;;;26.80;41.81;101225.50;4906874;29;8863;-76
2021/08/15 12:20:20;;;;;;;;;3.40;3.40;;;;;26.79;41.81;101224.69;4911634;29;8849;-77
2021/08/15 12:23:08;;;;;;;;;4.00;4.00;;;;;26.88;42.94;101222.13;4923611;29;8906;-76
2021/08/15 12:26:08;;;;;;;;;5.80;5.80;;;;;26.87;43.07;101222.56;4911927;29;8883;-77
2021/08/15 12:29:17;;;;;;;;;8.00;8.00;;;;;26.89;42.12;101218.03;4914706;29;8829;-76
2021/08/15 12:32:13;;;;;;;;;5.60;5.60;;;;;26.96;42.66;101207.81;4898656;29;8848;-76
2021/08/15 12:34:45;;;;;;;;;4.00;4.00;;;;;26.99;41.30;101215.44;4917747;29;8851;-77
2021/08/15 12:37:24;;;;;;;;;4.60;4.60;;;;;26.92;41.36;101218.44;4911590;29;8885;-75
2021/08/15 12:40:11;;;;;;;;;7.60;7.60;;;;;26.94;41.60;101210.28;4899038;29;8904;-75
2021/08/15 12:43:11;;;;;;;;;7.20;5.60;;;;;26.92;40.77;101210.72;4899086;29;8870;-75
2021/08/15 12:46:22;;;;;;;;;6.20;6.20;;;;;27.01;44.93;101205.28;4899091;29;8839;-76
2021/08/15 12:49:20;;;;;;;;;6.20;6.20;;;;;26.97;42.37;101210.19;4897664;29;8955;-75
2021/08/15 12:52:26;;;;;;;;;6.00;6.00;;;;;27.00;44.14;101212.19;4898616;29;8863;-75
2021/08/15 12:55:32;;;;;;;;;5.20;5.20;;;;;27.01;43.42;101210.16;4896064;29;8852;-76
2021/08/15 12:58:27;;;;;;;;;5.80;5.80;;;;;27.05;42.42;101208.06;4918092;29;8878;-76
2021/08/15 13:01:24;;;;;;;;;7.40;7.40;;;;;27.12;43.93;101211.59;4908609;29;8882;-77
2021/08/15 13:04:19;;;;;;;;;8.40;8.40;;;;;27.14;43.00;101203.47;4916682;29;9602;-75
2021/08/15 13:07:26;;;;;;;;;7.80;7.80;;;;;27.09;42.91;101197.47;4917866;29;8869;-77
2021/08/15 13:09:55;;;;;;;;;5.00;5.00;;;;;26.91;41.74;101199.78;4916635;29;8856;-76
2021/08/15 13:12:53;;;;;;;;;8.60;7.80;;;;;26.88;43.03;101199.41;4925176;29;8855;-75
2021/08/15 13:15:48;;;;;;;;;6.80;6.80;;;;;26.97;42.41;101204.53;4926530;29;8849;-75